Detall de PIREP

Printer-friendly versionPDF version

[2014/04/03 07:30:00]
Flight IATA:CT0001
Pilot Number:041
Company ICAO:CAT
Aircraft Type:BE58/A
PAX:2
Departing Airport: LEVC
Destination Airport: LEDA
Alternate Airport:LEBL
Online: VATSIM
Route:TATOS A34 SEROX H110 OSVAK
Flight Level:FL180
No Slew and time accel
No pause
Crash detect
Detect pilot in Cockpit between each 30 and 45 minutes
07:30 Zero fuel Weight: 4592 Lbs, Fuel Weight: 850 Lbs
07:30 VATSIM:LEVC 030700Z 26007KT 9999 FEW020 13/11 Q0998 NOSIG
07:30 VATSIM:LEDA 030700Z 00000KT 1500 RA SCT010 BKN029 11/11 Q0998
07:31 VOICE CATALONIAN
07:35 Parking Brakes off
07:39 Take-off
07:39 Take off Weight: 5439 Lbs
07:39 Wind: 259 TOC
07:55 Fuel Weight: 785 Lb
08:08 TOD
08:08 Fuel Weight: 726 Lb
08:09 Wind:221º@045 Knots Heading: 012º Ground Speed: 276 Knots Altitude 17696 ft
08:24 Wind:050º@009 Knots Heading: 017º Ground Speed: 173 Knots Altitude 4498 ft
08:28 Flaps:1 at 134 Knots
08:29 Gear Down: 125 Knots
08:30 Flaps:2 at 112 Knots
08:33 TouchDown:Rate -71 ft/min Speed: 85 Knots
08:33 Flaps:0 at 72 Knots
08:34 VATSIM:LEDA 030800Z 27005KT 2500 RA SCT002 BKN007 11/11 Q0998
08:34 Land
08:34 Wind:099º@008 Knots
08:34 Heading: 312º
08:34 Flight Duration: 00:55
08:34 Landing Weight: 5258 Lbs
08:34 POS N41º 43´ 32´´ E000º 32´ 19´´
08:37 Parking brakes on
08:37 Block to Block Duration: 01:02
08:37 Final Fuel: 665 Lbls
08:37 Spent Fuel: 185 Lbls
08:37 Flight Length: 163 NM
08:37 TOD Land Length: 76 NM

Exportar CSV

Powered by Drupal - Modified by Danger4k